sensor_id;sensor_type;location;lat;lon;timestamp;P1;durP1;ratioP1;P2;durP2;ratioP2
31284;SDS011;56605;51.516;6.742;2022-09-09T00:00:14;3.42;;;1.33;;
31284;SDS011;56605;51.516;6.742;2022-09-09T00:02:41;3.03;;;1.30;;
31284;SDS011;56605;51.516;6.742;2022-09-09T00:08:07;9.52;;;2.20;;
31284;SDS011;56605;51.516;6.742;2022-09-09T00:10:37;7.97;;;2.17;;
31284;SDS011;56605;51.516;6.742;2022-09-09T00:13:19;5.90;;;2.28;;
31284;SDS011;56605;51.516;6.742;2022-09-09T00:15:52;7.63;;;1.90;;
31284;SDS011;56605;51.516;6.742;2022-09-09T00:20:49;4.65;;;2.38;;
31284;SDS011;56605;51.516;6.742;2022-09-09T00:23:34;4.45;;;1.65;;
31284;SDS011;56605;51.516;6.742;2022-09-09T00:28:25;6.10;;;2.30;;
31284;SDS011;56605;51.516;6.742;2022-09-09T00:30:51;7.13;;;2.75;;
31284;SDS011;56605;51.516;6.742;2022-09-09T00:33:18;6.75;;;2.05;;
31284;SDS011;56605;51.516;6.742;2022-09-09T00:35:53;7.03;;;2.28;;
31284;SDS011;56605;51.516;6.742;2022-09-09T00:40:49;8.90;;;2.65;;
31284;SDS011;56605;51.516;6.742;2022-09-09T00:48:26;6.80;;;2.20;;
31284;SDS011;56605;51.516;6.742;2022-09-09T00:51:00;7.18;;;2.30;;
31284;SDS011;56605;51.516;6.742;2022-09-09T00:56:02;6.63;;;2.78;;
31284;SDS011;56605;51.516;6.742;2022-09-09T00:58:31;7.15;;;3.70;;
31284;SDS011;56605;51.516;6.742;2022-09-09T01:03:38;4.32;;;2.58;;
31284;SDS011;56605;51.516;6.742;2022-09-09T01:11:15;6.00;;;2.37;;
31284;SDS011;56605;51.516;6.742;2022-09-09T01:13:45;6.72;;;2.80;;
31284;SDS011;56605;51.516;6.742;2022-09-09T01:16:11;7.05;;;3.05;;
31284;SDS011;56605;51.516;6.742;2022-09-09T01:18:43;5.90;;;2.15;;
31284;SDS011;56605;51.516;6.742;2022-09-09T01:26:17;9.23;;;4.30;;
31284;SDS011;56605;51.516;6.742;2022-09-09T01:28:47;6.32;;;3.03;;
31284;SDS011;56605;51.516;6.742;2022-09-09T01:33:57;7.32;;;3.20;;
31284;SDS011;56605;51.516;6.742;2022-09-09T01:36:31;7.18;;;2.97;;
31284;SDS011;56605;51.516;6.742;2022-09-09T01:38:56;7.65;;;2.95;;
31284;SDS011;56605;51.516;6.742;2022-09-09T01:41:22;5.85;;;1.90;;
31284;SDS011;56605;51.516;6.742;2022-09-09T01:43:47;3.90;;;2.40;;
31284;SDS011;56605;51.516;6.742;2022-09-09T01:46:12;4.57;;;2.88;;
31284;SDS011;56605;51.516;6.742;2022-09-09T01:48:38;5.75;;;2.85;;
31284;SDS011;56605;51.516;6.742;2022-09-09T01:51:04;7.40;;;2.92;;
31284;SDS011;56605;51.516;6.742;2022-09-09T01:53:29;5.25;;;2.78;;
31284;SDS011;56605;51.516;6.742;2022-09-09T02:01:01;13.95;;;6.82;;
31284;SDS011;56605;51.516;6.742;2022-09-09T02:03:28;11.68;;;5.70;;
31284;SDS011;56605;51.516;6.742;2022-09-09T02:06:02;8.65;;;4.25;;
31284;SDS011;56605;51.516;6.742;2022-09-09T02:08:36;8.27;;;3.60;;
31284;SDS011;56605;51.516;6.742;2022-09-09T02:11:22;12.65;;;4.18;;
31284;SDS011;56605;51.516;6.742;2022-09-09T02:13:48;16.58;;;7.40;;
31284;SDS011;56605;51.516;6.742;2022-09-09T02:18:47;15.70;;;6.95;;
31284;SDS011;56605;51.516;6.742;2022-09-09T02:21:14;14.73;;;5.85;;
31284;SDS011;56605;51.516;6.742;2022-09-09T02:23:40;14.43;;;6.75;;
31284;SDS011;56605;51.516;6.742;2022-09-09T02:26:06;10.95;;;5.00;;
31284;SDS011;56605;51.516;6.742;2022-09-09T02:28:33;8.57;;;4.75;;
31284;SDS011;56605;51.516;6.742;2022-09-09T02:30:59;7.30;;;4.03;;
31284;SDS011;56605;51.516;6.742;2022-09-09T02:33:26;11.43;;;5.65;;
31284;SDS011;56605;51.516;6.742;2022-09-09T02:35:52;11.00;;;5.35;;
31284;SDS011;56605;51.516;6.742;2022-09-09T02:38:17;12.52;;;5.95;;
31284;SDS011;56605;51.516;6.742;2022-09-09T02:40:44;14.05;;;5.68;;
31284;SDS011;56605;51.516;6.742;2022-09-09T02:43:10;7.20;;;4.53;;
31284;SDS011;56605;51.516;6.742;2022-09-09T02:45:41;13.93;;;4.68;;
31284;SDS011;56605;51.516;6.742;2022-09-09T02:50:44;9.85;;;4.13;;
31284;SDS011;56605;51.516;6.742;2022-09-09T02:53:15;10.23;;;4.50;;
31284;SDS011;56605;51.516;6.742;2022-09-09T02:55:41;12.27;;;4.63;;
31284;SDS011;56605;51.516;6.742;2022-09-09T02:58:11;10.70;;;4.13;;
31284;SDS011;56605;51.516;6.742;2022-09-09T03:00:38;7.20;;;3.17;;
31284;SDS011;56605;51.516;6.742;2022-09-09T03:03:04;14.23;;;5.53;;
31284;SDS011;56605;51.516;6.742;2022-09-09T03:05:29;17.70;;;4.97;;
31284;SDS011;56605;51.516;6.742;2022-09-09T03:07:55;9.88;;;3.33;;
31284;SDS011;56605;51.516;6.742;2022-09-09T03:10:20;8.30;;;4.38;;
31284;SDS011;56605;51.516;6.742;2022-09-09T03:12:45;16.67;;;4.78;;
31284;SDS011;56605;51.516;6.742;2022-09-09T03:15:10;14.32;;;5.22;;
31284;SDS011;56605;51.516;6.742;2022-09-09T03:17:36;13.05;;;5.63;;
31284;SDS011;56605;51.516;6.742;2022-09-09T03:20:02;17.10;;;5.85;;
31284;SDS011;56605;51.516;6.742;2022-09-09T03:22:27;8.10;;;4.32;;
31284;SDS011;56605;51.516;6.742;2022-09-09T03:24:52;12.75;;;4.93;;
31284;SDS011;56605;51.516;6.742;2022-09-09T03:27:18;11.10;;;4.53;;
31284;SDS011;56605;51.516;6.742;2022-09-09T03:29:44;16.50;;;4.97;;
31284;SDS011;56605;51.516;6.742;2022-09-09T03:32:10;15.43;;;5.45;;
31284;SDS011;56605;51.516;6.742;2022-09-09T03:34:35;13.60;;;4.80;;
31284;SDS011;56605;51.516;6.742;2022-09-09T03:37:04;12.13;;;4.38;;
31284;SDS011;56605;51.516;6.742;2022-09-09T03:39:30;30.55;;;14.15;;
31284;SDS011;56605;51.516;6.742;2022-09-09T03:41:55;17.90;;;4.63;;
31284;SDS011;56605;51.516;6.742;2022-09-09T03:44:20;12.03;;;5.33;;
31284;SDS011;56605;51.516;6.742;2022-09-09T03:46:45;16.43;;;4.13;;
31284;SDS011;56605;51.516;6.742;2022-09-09T03:49:10;21.02;;;5.85;;
31284;SDS011;56605;51.516;6.742;2022-09-09T03:51:35;15.63;;;4.57;;
31284;SDS011;56605;51.516;6.742;2022-09-09T03:54:01;18.00;;;3.97;;
31284;SDS011;56605;51.516;6.742;2022-09-09T03:56:26;19.95;;;4.22;;
31284;SDS011;56605;51.516;6.742;2022-09-09T03:58:52;8.75;;;3.33;;
31284;SDS011;56605;51.516;6.742;2022-09-09T04:01:17;9.03;;;3.03;;
31284;SDS011;56605;51.516;6.742;2022-09-09T04:03:43;15.23;;;5.30;;
31284;SDS011;56605;51.516;6.742;2022-09-09T04:06:09;20.05;;;6.40;;
31284;SDS011;56605;51.516;6.742;2022-09-09T04:08:36;15.40;;;4.60;;
31284;SDS011;56605;51.516;6.742;2022-09-09T04:11:04;12.07;;;4.35;;
31284;SDS011;56605;51.516;6.742;2022-09-09T04:13:31;12.93;;;6.28;;
31284;SDS011;56605;51.516;6.742;2022-09-09T04:15:57;13.60;;;6.00;;
31284;SDS011;56605;51.516;6.742;2022-09-09T04:18:23;16.98;;;5.82;;
31284;SDS011;56605;51.516;6.742;2022-09-09T04:20:49;25.52;;;4.68;;
31284;SDS011;56605;51.516;6.742;2022-09-09T04:23:15;18.10;;;4.38;;
31284;SDS011;56605;51.516;6.742;2022-09-09T04:25:47;20.65;;;4.28;;
31284;SDS011;56605;51.516;6.742;2022-09-09T04:28:14;17.23;;;3.38;;
31284;SDS011;56605;51.516;6.742;2022-09-09T04:30:39;13.07;;;2.95;;
31284;SDS011;56605;51.516;6.742;2022-09-09T04:33:05;20.17;;;2.78;;
31284;SDS011;56605;51.516;6.742;2022-09-09T04:35:31;10.40;;;3.20;;
31284;SDS011;56605;51.516;6.742;2022-09-09T04:37:56;13.73;;;3.00;;
31284;SDS011;56605;51.516;6.742;2022-09-09T04:40:21;12.07;;;3.20;;
31284;SDS011;56605;51.516;6.742;2022-09-09T04:42:47;6.55;;;3.15;;
31284;SDS011;56605;51.516;6.742;2022-09-09T04:45:12;21.35;;;3.75;;
31284;SDS011;56605;51.516;6.742;2022-09-09T04:47:38;18.05;;;3.47;;
31284;SDS011;56605;51.516;6.742;2022-09-09T04:50:03;14.18;;;3.58;;
31284;SDS011;56605;51.516;6.742;2022-09-09T04:52:30;12.23;;;3.75;;
31284;SDS011;56605;51.516;6.742;2022-09-09T04:54:55;22.57;;;5.07;;
31284;SDS011;56605;51.516;6.742;2022-09-09T04:57:20;13.32;;;3.78;;
31284;SDS011;56605;51.516;6.742;2022-09-09T04:59:45;19.80;;;3.33;;
31284;SDS011;56605;51.516;6.742;2022-09-09T05:02:11;16.53;;;4.23;;
31284;SDS011;56605;51.516;6.742;2022-09-09T05:04:36;15.77;;;3.13;;
31284;SDS011;56605;51.516;6.742;2022-09-09T05:07:01;15.90;;;4.10;;
31284;SDS011;56605;51.516;6.742;2022-09-09T05:09:26;18.20;;;3.40;;
31284;SDS011;56605;51.516;6.742;2022-09-09T05:11:52;10.40;;;3.93;;
31284;SDS011;56605;51.516;6.742;2022-09-09T05:14:17;18.17;;;3.40;;
31284;SDS011;56605;51.516;6.742;2022-09-09T05:16:44;21.45;;;4.68;;
31284;SDS011;56605;51.516;6.742;2022-09-09T05:19:09;16.15;;;4.10;;
31284;SDS011;56605;51.516;6.742;2022-09-09T05:21:35;15.27;;;3.38;;
31284;SDS011;56605;51.516;6.742;2022-09-09T05:24:00;15.38;;;3.17;;
31284;SDS011;56605;51.516;6.742;2022-09-09T05:26:25;16.25;;;3.47;;
31284;SDS011;56605;51.516;6.742;2022-09-09T05:28:51;13.20;;;3.40;;
31284;SDS011;56605;51.516;6.742;2022-09-09T05:31:16;10.63;;;3.00;;
31284;SDS011;56605;51.516;6.742;2022-09-09T05:33:43;14.73;;;2.70;;
31284;SDS011;56605;51.516;6.742;2022-09-09T05:38:33;11.00;;;2.70;;
31284;SDS011;56605;51.516;6.742;2022-09-09T05:40:59;13.35;;;3.20;;
31284;SDS011;56605;51.516;6.742;2022-09-09T05:43:25;16.85;;;3.88;;
31284;SDS011;56605;51.516;6.742;2022-09-09T05:48:33;18.85;;;4.80;;
31284;SDS011;56605;51.516;6.742;2022-09-09T05:50:59;20.38;;;4.03;;
31284;SDS011;56605;51.516;6.742;2022-09-09T05:53:25;12.95;;;3.85;;
31284;SDS011;56605;51.516;6.742;2022-09-09T05:55:50;20.63;;;4.22;;
31284;SDS011;56605;51.516;6.742;2022-09-09T05:58:15;14.82;;;3.70;;
31284;SDS011;56605;51.516;6.742;2022-09-09T06:00:41;14.07;;;3.17;;
31284;SDS011;56605;51.516;6.742;2022-09-09T06:03:10;23.42;;;4.25;;
31284;SDS011;56605;51.516;6.742;2022-09-09T06:05:35;20.95;;;3.38;;
31284;SDS011;56605;51.516;6.742;2022-09-09T06:08:00;18.57;;;4.43;;
31284;SDS011;56605;51.516;6.742;2022-09-09T06:10:25;23.58;;;5.90;;
31284;SDS011;56605;51.516;6.742;2022-09-09T06:12:52;9.63;;;4.13;;
31284;SDS011;56605;51.516;6.742;2022-09-09T06:15:17;13.55;;;5.43;;
31284;SDS011;56605;51.516;6.742;2022-09-09T06:17:42;20.20;;;6.00;;
31284;SDS011;56605;51.516;6.742;2022-09-09T06:20:08;21.42;;;6.15;;
31284;SDS011;56605;51.516;6.742;2022-09-09T06:22:34;21.83;;;4.18;;
31284;SDS011;56605;51.516;6.742;2022-09-09T06:24:59;11.80;;;3.40;;
31284;SDS011;56605;51.516;6.742;2022-09-09T06:27:26;13.90;;;4.53;;
31284;SDS011;56605;51.516;6.742;2022-09-09T06:29:52;14.48;;;3.17;;
31284;SDS011;56605;51.516;6.742;2022-09-09T06:32:17;13.03;;;4.17;;
31284;SDS011;56605;51.516;6.742;2022-09-09T06:34:42;19.48;;;5.15;;
31284;SDS011;56605;51.516;6.742;2022-09-09T06:37:07;22.67;;;4.80;;
31284;SDS011;56605;51.516;6.742;2022-09-09T06:39:33;12.40;;;2.20;;
31284;SDS011;56605;51.516;6.742;2022-09-09T06:41:58;18.85;;;3.72;;
31284;SDS011;56605;51.516;6.742;2022-09-09T06:44:24;16.23;;;6.35;;
31284;SDS011;56605;51.516;6.742;2022-09-09T06:46:51;15.63;;;3.90;;
31284;SDS011;56605;51.516;6.742;2022-09-09T06:49:17;17.85;;;4.65;;
31284;SDS011;56605;51.516;6.742;2022-09-09T06:51:42;32.93;;;4.33;;
31284;SDS011;56605;51.516;6.742;2022-09-09T06:54:09;20.88;;;3.33;;
31284;SDS011;56605;51.516;6.742;2022-09-09T06:56:35;30.50;;;3.78;;
31284;SDS011;56605;51.516;6.742;2022-09-09T06:59:02;18.50;;;6.45;;
31284;SDS011;56605;51.516;6.742;2022-09-09T07:01:29;17.08;;;3.10;;
31284;SDS011;56605;51.516;6.742;2022-09-09T07:03:56;24.00;;;2.85;;
31284;SDS011;56605;51.516;6.742;2022-09-09T07:06:29;11.00;;;3.70;;
31284;SDS011;56605;51.516;6.742;2022-09-09T07:08:56;14.10;;;2.60;;
31284;SDS011;56605;51.516;6.742;2022-09-09T07:11:24;11.55;;;2.85;;
31284;SDS011;56605;51.516;6.742;2022-09-09T07:13:50;14.43;;;2.75;;
31284;SDS011;56605;51.516;6.742;2022-09-09T07:16:16;14.48;;;2.72;;
31284;SDS011;56605;51.516;6.742;2022-09-09T07:18:42;23.27;;;3.53;;
31284;SDS011;56605;51.516;6.742;2022-09-09T07:21:09;24.38;;;3.65;;
31284;SDS011;56605;51.516;6.742;2022-09-09T07:23:34;11.60;;;2.83;;
31284;SDS011;56605;51.516;6.742;2022-09-09T07:26:06;11.40;;;3.00;;
31284;SDS011;56605;51.516;6.742;2022-09-09T07:28:32;10.40;;;2.08;;
31284;SDS011;56605;51.516;6.742;2022-09-09T07:30:58;6.43;;;2.23;;
31284;SDS011;56605;51.516;6.742;2022-09-09T07:33:23;8.07;;;2.10;;
31284;SDS011;56605;51.516;6.742;2022-09-09T07:35:49;13.63;;;2.90;;
31284;SDS011;56605;51.516;6.742;2022-09-09T07:38:15;21.40;;;4.10;;
31284;SDS011;56605;51.516;6.742;2022-09-09T07:40:40;10.77;;;3.00;;
31284;SDS011;56605;51.516;6.742;2022-09-09T07:43:05;13.65;;;3.35;;
31284;SDS011;56605;51.516;6.742;2022-09-09T07:45:30;6.83;;;2.13;;
31284;SDS011;56605;51.516;6.742;2022-09-09T07:47:58;16.35;;;3.72;;
31284;SDS011;56605;51.516;6.742;2022-09-09T07:50:23;11.30;;;2.50;;
31284;SDS011;56605;51.516;6.742;2022-09-09T07:52:49;7.50;;;2.00;;
31284;SDS011;56605;51.516;6.742;2022-09-09T07:55:14;12.10;;;2.67;;
31284;SDS011;56605;51.516;6.742;2022-09-09T07:57:40;5.75;;;1.55;;
31284;SDS011;56605;51.516;6.742;2022-09-09T08:00:05;8.07;;;3.10;;
31284;SDS011;56605;51.516;6.742;2022-09-09T08:02:30;6.20;;;1.50;;
31284;SDS011;56605;51.516;6.742;2022-09-09T08:04:56;5.90;;;1.40;;
31284;SDS011;56605;51.516;6.742;2022-09-09T08:07:21;14.30;;;2.42;;
31284;SDS011;56605;51.516;6.742;2022-09-09T08:09:47;6.53;;;1.70;;
31284;SDS011;56605;51.516;6.742;2022-09-09T08:12:12;10.30;;;1.45;;
31284;SDS011;56605;51.516;6.742;2022-09-09T08:14:38;7.45;;;1.50;;
31284;SDS011;56605;51.516;6.742;2022-09-09T08:17:04;9.65;;;2.53;;
31284;SDS011;56605;51.516;6.742;2022-09-09T08:19:29;7.93;;;2.30;;
31284;SDS011;56605;51.516;6.742;2022-09-09T08:21:54;9.80;;;2.60;;
31284;SDS011;56605;51.516;6.742;2022-09-09T08:24:20;5.37;;;1.17;;
31284;SDS011;56605;51.516;6.742;2022-09-09T08:26:46;6.13;;;1.20;;
31284;SDS011;56605;51.516;6.742;2022-09-09T08:29:12;9.05;;;3.22;;
31284;SDS011;56605;51.516;6.742;2022-09-09T08:31:39;8.95;;;1.80;;
31284;SDS011;56605;51.516;6.742;2022-09-09T08:34:05;9.90;;;2.35;;
31284;SDS011;56605;51.516;6.742;2022-09-09T08:36:32;12.10;;;2.00;;
31284;SDS011;56605;51.516;6.742;2022-09-09T08:39:01;7.53;;;2.75;;
31284;SDS011;56605;51.516;6.742;2022-09-09T08:49:01;6.00;;;1.73;;
31284;SDS011;56605;51.516;6.742;2022-09-09T08:51:31;4.22;;;1.75;;
31284;SDS011;56605;51.516;6.742;2022-09-09T08:53:58;8.98;;;3.83;;
31284;SDS011;56605;51.516;6.742;2022-09-09T08:56:25;11.98;;;2.78;;
31284;SDS011;56605;51.516;6.742;2022-09-09T08:58:52;8.05;;;2.05;;
31284;SDS011;56605;51.516;6.742;2022-09-09T09:06:59;15.38;;;2.70;;
31284;SDS011;56605;51.516;6.742;2022-09-09T09:09:34;21.88;;;2.90;;
31284;SDS011;56605;51.516;6.742;2022-09-09T09:12:02;20.60;;;4.57;;
31284;SDS011;56605;51.516;6.742;2022-09-09T09:14:33;9.10;;;2.80;;
31284;SDS011;56605;51.516;6.742;2022-09-09T09:19:58;20.83;;;3.53;;
31284;SDS011;56605;51.516;6.742;2022-09-09T09:25:08;11.93;;;2.25;;
31284;SDS011;56605;51.516;6.742;2022-09-09T09:27:38;14.52;;;3.50;;
31284;SDS011;56605;51.516;6.742;2022-09-09T09:30:13;14.63;;;3.90;;
31284;SDS011;56605;51.516;6.742;2022-09-09T09:32:39;20.90;;;3.03;;
31284;SDS011;56605;51.516;6.742;2022-09-09T09:35:06;18.60;;;3.17;;
31284;SDS011;56605;51.516;6.742;2022-09-09T09:37:34;6.05;;;1.75;;
31284;SDS011;56605;51.516;6.742;2022-09-09T09:40:12;4.78;;;2.58;;
31284;SDS011;56605;51.516;6.742;2022-09-09T09:42:47;7.47;;;1.40;;
31284;SDS011;56605;51.516;6.742;2022-09-09T09:45:15;6.82;;;1.77;;
31284;SDS011;56605;51.516;6.742;2022-09-09T09:47:43;9.63;;;1.90;;
31284;SDS011;56605;51.516;6.742;2022-09-09T09:50:15;7.55;;;1.30;;
31284;SDS011;56605;51.516;6.742;2022-09-09T09:52:41;7.57;;;2.08;;
31284;SDS011;56605;51.516;6.742;2022-09-09T09:55:11;7.95;;;1.55;;
31284;SDS011;56605;51.516;6.742;2022-09-09T09:57:37;5.40;;;1.10;;
31284;SDS011;56605;51.516;6.742;2022-09-09T10:00:23;3.28;;;1.05;;
31284;SDS011;56605;51.516;6.742;2022-09-09T10:02:49;5.07;;;1.00;;
31284;SDS011;56605;51.516;6.742;2022-09-09T10:05:21;8.07;;;1.42;;
31284;SDS011;56605;51.516;6.742;2022-09-09T10:07:46;3.55;;;1.27;;
31284;SDS011;56605;51.516;6.742;2022-09-09T10:10:16;6.72;;;1.25;;
31284;SDS011;56605;51.516;6.742;2022-09-09T10:12:52;4.15;;;1.52;;
31284;SDS011;56605;51.516;6.742;2022-09-09T10:20:45;8.25;;;1.70;;
31284;SDS011;56605;51.516;6.742;2022-09-09T10:30:55;10.63;;;1.75;;
31284;SDS011;56605;51.516;6.742;2022-09-09T10:36:28;14.48;;;1.65;;
31284;SDS011;56605;51.516;6.742;2022-09-09T10:41:47;11.73;;;2.22;;
31284;SDS011;56605;51.516;6.742;2022-09-09T10:47:07;15.77;;;1.83;;
31284;SDS011;56605;51.516;6.742;2022-09-09T10:52:14;5.68;;;1.90;;
31284;SDS011;56605;51.516;6.742;2022-09-09T10:57:37;7.40;;;1.17;;
31284;SDS011;56605;51.516;6.742;2022-09-09T11:00:06;9.45;;;2.42;;
31284;SDS011;56605;51.516;6.742;2022-09-09T11:02:32;10.07;;;1.50;;
31284;SDS011;56605;51.516;6.742;2022-09-09T11:05:20;8.90;;;1.30;;
31284;SDS011;56605;51.516;6.742;2022-09-09T11:07:48;4.13;;;1.13;;
31284;SDS011;56605;51.516;6.742;2022-09-09T11:12:49;12.48;;;2.20;;
31284;SDS011;56605;51.516;6.742;2022-09-09T11:15:25;9.23;;;3.33;;
31284;SDS011;56605;51.516;6.742;2022-09-09T11:17:56;9.98;;;3.15;;
31284;SDS011;56605;51.516;6.742;2022-09-09T11:20:22;11.32;;;2.30;;
31284;SDS011;56605;51.516;6.742;2022-09-09T11:28:00;7.32;;;1.88;;
31284;SDS011;56605;51.516;6.742;2022-09-09T11:36:20;9.27;;;1.45;;
31284;SDS011;56605;51.516;6.742;2022-09-09T11:38:50;2.53;;;0.98;;
31284;SDS011;56605;51.516;6.742;2022-09-09T11:41:16;8.70;;;2.25;;
31284;SDS011;56605;51.516;6.742;2022-09-09T11:43:43;3.78;;;1.48;;
31284;SDS011;56605;51.516;6.742;2022-09-09T11:46:08;6.47;;;1.67;;
31284;SDS011;56605;51.516;6.742;2022-09-09T11:48:36;15.57;;;1.92;;
31284;SDS011;56605;51.516;6.742;2022-09-09T11:51:08;12.77;;;3.22;;
31284;SDS011;56605;51.516;6.742;2022-09-09T11:53:55;9.98;;;4.53;;
31284;SDS011;56605;51.516;6.742;2022-09-09T11:57:02;17.08;;;3.83;;
31284;SDS011;56605;51.516;6.742;2022-09-09T11:59:21;25.08;;;3.58;;
31284;SDS011;56605;51.516;6.742;2022-09-09T12:01:55;23.80;;;2.70;;
31284;SDS011;56605;51.516;6.742;2022-09-09T12:04:27;6.72;;;1.83;;
31284;SDS011;56605;51.516;6.742;2022-09-09T12:12:06;3.10;;;0.93;;
31284;SDS011;56605;51.516;6.742;2022-09-09T12:14:35;7.30;;;1.13;;
31284;SDS011;56605;51.516;6.742;2022-09-09T12:19:41;4.18;;;1.30;;
31284;SDS011;56605;51.516;6.742;2022-09-09T12:22:27;1.95;;;0.90;;
31284;SDS011;56605;51.516;6.742;2022-09-09T12:25:03;6.80;;;1.50;;
31284;SDS011;56605;51.516;6.742;2022-09-09T12:27:36;10.75;;;2.10;;
31284;SDS011;56605;51.516;6.742;2022-09-09T12:30:12;7.63;;;1.90;;
31284;SDS011;56605;51.516;6.742;2022-09-09T12:32:39;14.60;;;2.17;;
31284;SDS011;56605;51.516;6.742;2022-09-09T12:37:46;5.47;;;1.33;;
31284;SDS011;56605;51.516;6.742;2022-09-09T12:40:20;9.50;;;1.90;;
31284;SDS011;56605;51.516;6.742;2022-09-09T12:42:46;3.35;;;0.88;;
31284;SDS011;56605;51.516;6.742;2022-09-09T12:45:17;1.87;;;0.80;;
31284;SDS011;56605;51.516;6.742;2022-09-09T12:52:42;3.33;;;0.85;;
31284;SDS011;56605;51.516;6.742;2022-09-09T12:55:14;5.38;;;0.70;;
31284;SDS011;56605;51.516;6.742;2022-09-09T12:57:41;3.38;;;1.23;;
31284;SDS011;56605;51.516;6.742;2022-09-09T13:00:12;3.72;;;1.05;;
31284;SDS011;56605;51.516;6.742;2022-09-09T13:02:46;1.52;;;0.70;;
31284;SDS011;56605;51.516;6.742;2022-09-09T13:05:16;3.70;;;1.05;;
31284;SDS011;56605;51.516;6.742;2022-09-09T13:07:42;3.15;;;0.60;;
31284;SDS011;56605;51.516;6.742;2022-09-09T13:10:10;4.72;;;1.63;;
31284;SDS011;56605;51.516;6.742;2022-09-09T13:12:35;6.82;;;2.10;;
31284;SDS011;56605;51.516;6.742;2022-09-09T13:15:00;5.75;;;1.75;;
31284;SDS011;56605;51.516;6.742;2022-09-09T13:17:27;6.38;;;1.27;;
31284;SDS011;56605;51.516;6.742;2022-09-09T13:19:56;3.22;;;1.70;;
31284;SDS011;56605;51.516;6.742;2022-09-09T13:24:47;11.40;;;2.37;;
31284;SDS011;56605;51.516;6.742;2022-09-09T13:27:28;10.40;;;2.03;;
31284;SDS011;56605;51.516;6.742;2022-09-09T13:29:54;4.28;;;1.55;;
31284;SDS011;56605;51.516;6.742;2022-09-09T13:32:21;12.05;;;2.80;;
31284;SDS011;56605;51.516;6.742;2022-09-09T13:34:53;12.98;;;1.98;;
31284;SDS011;56605;51.516;6.742;2022-09-09T13:37:23;2.30;;;1.25;;
31284;SDS011;56605;51.516;6.742;2022-09-09T13:39:52;3.85;;;1.73;;
31284;SDS011;56605;51.516;6.742;2022-09-09T13:42:27;10.02;;;1.27;;
31284;SDS011;56605;51.516;6.742;2022-09-09T13:44:52;13.18;;;4.10;;
31284;SDS011;56605;51.516;6.742;2022-09-09T13:47:19;11.27;;;2.20;;
31284;SDS011;56605;51.516;6.742;2022-09-09T13:49:45;5.18;;;2.10;;
31284;SDS011;56605;51.516;6.742;2022-09-09T13:52:12;10.82;;;2.00;;
31284;SDS011;56605;51.516;6.742;2022-09-09T13:54:38;9.00;;;1.92;;
31284;SDS011;56605;51.516;6.742;2022-09-09T13:57:04;6.25;;;1.52;;
31284;SDS011;56605;51.516;6.742;2022-09-09T13:59:29;4.45;;;1.20;;
31284;SDS011;56605;51.516;6.742;2022-09-09T14:01:55;4.10;;;1.70;;
31284;SDS011;56605;51.516;6.742;2022-09-09T14:04:20;5.33;;;1.60;;
31284;SDS011;56605;51.516;6.742;2022-09-09T14:06:51;6.45;;;1.83;;
31284;SDS011;56605;51.516;6.742;2022-09-09T14:09:17;3.10;;;1.33;;
31284;SDS011;56605;51.516;6.742;2022-09-09T14:11:43;2.20;;;1.08;;
31284;SDS011;56605;51.516;6.742;2022-09-09T14:14:08;1.65;;;0.75;;
31284;SDS011;56605;51.516;6.742;2022-09-09T14:16:34;6.00;;;1.27;;
31284;SDS011;56605;51.516;6.742;2022-09-09T14:18:59;2.63;;;1.13;;
31284;SDS011;56605;51.516;6.742;2022-09-09T14:21:25;5.80;;;1.20;;
31284;SDS011;56605;51.516;6.742;2022-09-09T14:23:50;3.33;;;1.25;;
31284;SDS011;56605;51.516;6.742;2022-09-09T14:26:15;7.53;;;1.73;;
31284;SDS011;56605;51.516;6.742;2022-09-09T14:28:40;3.17;;;1.27;;
31284;SDS011;56605;51.516;6.742;2022-09-09T14:31:06;5.88;;;1.20;;
31284;SDS011;56605;51.516;6.742;2022-09-09T14:33:31;3.45;;;1.30;;
31284;SDS011;56605;51.516;6.742;2022-09-09T14:35:57;4.28;;;1.40;;
31284;SDS011;56605;51.516;6.742;2022-09-09T14:38:22;6.38;;;1.30;;
31284;SDS011;56605;51.516;6.742;2022-09-09T14:40:48;0.73;;;0.55;;
31284;SDS011;56605;51.516;6.742;2022-09-09T14:43:13;4.47;;;1.40;;
31284;SDS011;56605;51.516;6.742;2022-09-09T14:45:39;5.57;;;1.33;;
31284;SDS011;56605;51.516;6.742;2022-09-09T14:48:04;3.63;;;1.00;;
31284;SDS011;56605;51.516;6.742;2022-09-09T14:50:29;6.95;;;1.15;;
31284;SDS011;56605;51.516;6.742;2022-09-09T14:52:54;2.85;;;1.00;;
31284;SDS011;56605;51.516;6.742;2022-09-09T14:55:19;2.30;;;0.60;;
31284;SDS011;56605;51.516;6.742;2022-09-09T14:57:46;1.88;;;0.73;;
31284;SDS011;56605;51.516;6.742;2022-09-09T15:00:11;1.50;;;0.47;;
31284;SDS011;56605;51.516;6.742;2022-09-09T15:02:38;1.80;;;0.60;;
31284;SDS011;56605;51.516;6.742;2022-09-09T15:05:03;4.50;;;1.10;;
31284;SDS011;56605;51.516;6.742;2022-09-09T15:07:29;2.80;;;0.90;;
31284;SDS011;56605;51.516;6.742;2022-09-09T15:09:56;3.30;;;0.90;;
31284;SDS011;56605;51.516;6.742;2022-09-09T15:12:22;4.20;;;1.15;;
31284;SDS011;56605;51.516;6.742;2022-09-09T15:14:47;4.65;;;2.08;;
31284;SDS011;56605;51.516;6.742;2022-09-09T15:17:13;7.95;;;2.50;;
31284;SDS011;56605;51.516;6.742;2022-09-09T15:19:38;5.10;;;2.10;;
31284;SDS011;56605;51.516;6.742;2022-09-09T15:22:04;10.13;;;2.20;;
31284;SDS011;56605;51.516;6.742;2022-09-09T15:24:30;10.45;;;2.33;;
31284;SDS011;56605;51.516;6.742;2022-09-09T15:26:56;7.35;;;2.47;;
31284;SDS011;56605;51.516;6.742;2022-09-09T15:29:22;9.00;;;3.47;;
31284;SDS011;56605;51.516;6.742;2022-09-09T15:31:47;11.47;;;4.40;;
31284;SDS011;56605;51.516;6.742;2022-09-09T15:34:12;19.67;;;7.93;;
31284;SDS011;56605;51.516;6.742;2022-09-09T15:36:39;12.32;;;5.15;;
31284;SDS011;56605;51.516;6.742;2022-09-09T15:39:06;12.85;;;3.47;;
31284;SDS011;56605;51.516;6.742;2022-09-09T15:41:31;9.98;;;3.10;;
31284;SDS011;56605;51.516;6.742;2022-09-09T15:43:57;15.43;;;3.83;;
31284;SDS011;56605;51.516;6.742;2022-09-09T15:48:54;8.75;;;4.50;;
31284;SDS011;56605;51.516;6.742;2022-09-09T15:51:20;10.82;;;4.97;;
31284;SDS011;56605;51.516;6.742;2022-09-09T15:53:45;10.98;;;3.83;;
31284;SDS011;56605;51.516;6.742;2022-09-09T15:56:11;12.87;;;5.83;;
31284;SDS011;56605;51.516;6.742;2022-09-09T15:58:36;17.05;;;5.28;;
31284;SDS011;56605;51.516;6.742;2022-09-09T16:01:05;12.07;;;4.38;;
31284;SDS011;56605;51.516;6.742;2022-09-09T16:03:35;16.90;;;5.30;;
31284;SDS011;56605;51.516;6.742;2022-09-09T16:06:00;34.05;;;13.43;;
31284;SDS011;56605;51.516;6.742;2022-09-09T16:08:31;28.17;;;11.65;;
31284;SDS011;56605;51.516;6.742;2022-09-09T16:10:56;35.38;;;12.15;;
31284;SDS011;56605;51.516;6.742;2022-09-09T16:13:28;33.70;;;11.35;;
31284;SDS011;56605;51.516;6.742;2022-09-09T16:15:54;22.03;;;7.70;;
31284;SDS011;56605;51.516;6.742;2022-09-09T16:18:19;9.15;;;3.75;;
31284;SDS011;56605;51.516;6.742;2022-09-09T16:20:52;9.70;;;2.72;;
31284;SDS011;56605;51.516;6.742;2022-09-09T16:23:18;9.00;;;2.50;;
31284;SDS011;56605;51.516;6.742;2022-09-09T16:25:44;2.78;;;1.60;;
31284;SDS011;56605;51.516;6.742;2022-09-09T16:28:17;4.75;;;1.48;;
31284;SDS011;56605;51.516;6.742;2022-09-09T16:30:42;4.73;;;1.60;;
31284;SDS011;56605;51.516;6.742;2022-09-09T16:33:07;3.97;;;1.40;;
31284;SDS011;56605;51.516;6.742;2022-09-09T16:35:35;4.37;;;1.43;;
31284;SDS011;56605;51.516;6.742;2022-09-09T16:38:01;3.42;;;1.15;;
31284;SDS011;56605;51.516;6.742;2022-09-09T16:40:27;3.65;;;1.40;;
31284;SDS011;56605;51.516;6.742;2022-09-09T16:42:52;5.07;;;2.47;;
31284;SDS011;56605;51.516;6.742;2022-09-09T16:45:17;2.40;;;1.03;;
31284;SDS011;56605;51.516;6.742;2022-09-09T16:47:42;2.88;;;1.17;;
31284;SDS011;56605;51.516;6.742;2022-09-09T16:50:08;3.63;;;0.93;;